This is the latest recevied weather packets stored in our database for station/object KG0HG. If no packets are shown the sender has not sent any weather packets the latest 10 day(s).
| Time | Temp. | Humidity | Pressure | Rain* | Wind** | Luminosity | Snow |
|---|---|---|---|---|---|---|---|
| 1777747634 | 15.56° C | 34% | 1021.2 hPa | 0 mm | - | 732 W/m² | - |
| 1777747330 | 15° C | 31% | 1021.1 hPa | 0 mm | - | 733 W/m² | - |
| 1777747027 | 15° C | 32% | 1021.4 hPa | 0 mm | - | 743 W/m² | - |
| 1777746723 | 15.56° C | 30% | 1021.5 hPa | 0 mm | - | 744 W/m² | - |
| 1777746418 | 15° C | 32% | 1021.3 hPa | 0 mm | - | 742 W/m² | - |
| 1777746114 | 14.44° C | 31% | 1021.6 hPa | 0 mm | - | 745 W/m² | - |
| 1777745812 | 15° C | 34% | 1021.6 hPa | 0 mm | - | 750 W/m² | - |
| 1777745510 | 15° C | 32% | 1021.4 hPa | 0 mm | - | 696 W/m² | - |
| 1777745207 | 14.44° C | 32% | 1021.7 hPa | 0 mm | - | 673 W/m² | - |
| 1777744904 | 15° C | 33% | 1021.6 hPa | 0 mm | - | 665 W/m² | - |
| 1777744603 | 14.44° C | 33% | 1021.7 hPa | 0 mm | - | 745 W/m² | - |
| 1777744299 | 13.89° C | 32% | 1021.7 hPa | 0 mm | - | 753 W/m² | - |
| 1777743996 | 15° C | 31% | 1022 hPa | 0 mm | - | 223 W/m² | - |
| 1777743692 | 13.89° C | 32% | 1021.9 hPa | 0 mm | - | 763 W/m² | - |
| 1777743390 | 14.44° C | 34% | 1021.8 hPa | 0 mm | - | 224 W/m² | - |
| 1777743088 | 13.89° C | 32% | 1022 hPa | 0 mm | - | 768 W/m² | - |
| 1777742785 | 13.89° C | 33% | 1021.5 hPa | 0 mm | - | 465 W/m² | - |
| 1777742482 | 14.44° C | 34% | 1021.9 hPa | 0 mm | - | 125 W/m² | - |
| 1777742177 | 14.44° C | 35% | 1021.7 hPa | 0 mm | - | 54 W/m² | - |
| 1777741874 | 13.89° C | 33% | 1022 hPa | 0 mm | - | 52 W/m² | - |
| 1777741571 | 13.89° C | 34% | 1022 hPa | 0 mm | - | 51 W/m² | - |
| 1777741268 | 14.44° C | 35% | 1022.1 hPa | 0 mm | - | 57 W/m² | - |
| 1777740965 | 13.89° C | 35% | 1022.1 hPa | 0 mm | - | 49 W/m² | - |
| 1777740662 | 13.89° C | 37% | 1022.2 hPa | 0 mm | - | 51 W/m² | - |
| 1777740358 | 13.89° C | 37% | 1022 hPa | 0 mm | - | 54 W/m² | - |
* Rain latest hour (hover to see other rain measurements)
** Current wind speed in m/s (hover to see current wind gust speed)